METAR (acronimo di METeorological Air Report) è un messaggio meteo emesso nella maggior parte dei casi in ambito aeroportuale

LIPF - Ferrara, It
Distanza dalla Stazione: 8 km
Ultimo Aggiornamento: Venerdì 25 Settembre 2020 19:55 CEST
Prevalentemente Nuvoloso
Prevalentemente Nuvoloso
 Wind from varies
Vento: variabile 0 km/h
Temperatura: 17°C
Punto di Rugiada: 7°C
Umidità: 52%
Barometro: 992 hPa
Nuvole: Prevalentemente Nuvoloso
Visibilità: 10 km
Nuvole nel Dettaglio: Qualche Nuvola 762 m
Prevalentemente Nuvoloso 914 m
2020/09/25 17:55 LIPF 251755Z /////KT 9999 FEW025CB BKN030 17/07 Q0992
LIPE - Bologna Borgo Panigale, It
Distanza dalla Stazione: 46 km
Ultimo Aggiornamento: Venerdì 25 Settembre 2020 20:20 CEST
Parzialmente Nuvoloso
Parzialmente Nuvoloso
 Wind from Sud-Sud-Ovest
Vento: Sud-Sud-Ovest 15 km/h
Temperatura: 13°C
Punto di Rugiada: 8°C
Umidità: 72%
Barometro: 992 hPa
Nuvole: Parzialmente Nuvoloso
Visibilità: 10 km
Nuvole nel Dettaglio: Parzialmente Nuvoloso 2256 m
2020/09/25 18:20 LIPE 251820Z 21008KT 9999 SCT074 13/08 Q0992
LIMF - Torino Caselle, It
Distanza dalla Stazione: 320 km
Ultimo Aggiornamento: Venerdì 25 Settembre 2020 20:20 CEST
Sereno
Sereno
 Wind from varies
Vento: variabile 7 km/h
Temperatura: 14°C
Punto di Rugiada: 5°C
Umidità: 55%
Barometro: 996 hPa
Condizioni: Sereno
Visibilità: superiore a 10 km
2020/09/25 18:20 LIMF 251820Z VRB04KT CAVOK 14/05 Q0996
 
LIML - Milano Malpensa, It
Distanza dalla Stazione: 249 km
Ultimo Aggiornamento: Venerdì 25 Settembre 2020 20:20 CEST
Parzialmente Nuvoloso
Parzialmente Nuvoloso
 Wind from Ovest-Nord-Ovest
Vento: Ovest-Nord-Ovest 11 km/h
Temperatura: 15°C
Punto di Rugiada: 5°C
Umidità: 51%
Barometro: 995 hPa
Nuvole: Parzialmente Nuvoloso
Visibilità: 10 km
Nuvole nel Dettaglio: Parzialmente Nuvoloso 2438 m
2020/09/25 18:20 LIML 251820Z 29006KT 9999 SCT080 15/05 Q0995 NOSIG
LIME - Bergamo Orio al Serio, It
Distanza dalla Stazione: 181 km
Ultimo Aggiornamento: Venerdì 25 Settembre 2020 20:20 CEST
Prevalentemente Nuvoloso
Prevalentemente Nuvoloso
 Wind from varies
Vento: variabile 4 km/h
Temperatura: 12°C
Punto di Rugiada: 8°C
Umidità: 77%
Barometro: 994 hPa
Nuvole: Prevalentemente Nuvoloso
Visibilità: 10 km
Nuvole nel Dettaglio: Prevalentemente Nuvoloso 3048 m
2020/09/25 18:20 LIME 251820Z VRB02KT 9999 BKN100 12/08 Q0994 NOSIG
LIPZ - Venezia Tessera, It
Distanza dalla Stazione: 93 km
Ultimo Aggiornamento: Venerdì 25 Settembre 2020 20:20 CEST
Parzialmente Nuvoloso
Parzialmente Nuvoloso
 Wind from Sud-Ovest
Vento: Sud-Ovest 26 km/h
Temperatura: 19°C
Punto di Rugiada: 9°C
Umidità: 52%
Barometro: 990 hPa
Nuvole: Parzialmente Nuvoloso
Visibilità: 10 km
Nuvole nel Dettaglio: Parzialmente Nuvoloso 2134 m
2020/09/25 18:20 LIPZ 251820Z 23014KT 9999 SCT070 19/09 Q0990 NOSIG
 
LIVT - Trieste, It
Distanza dalla Stazione: 179 km
Ultimo Aggiornamento: Venerdì 25 Settembre 2020 19:55 CEST
Pioggia Leggera, Nuvoloso
Pioggia Leggera, Nuvoloso
 Wind from varies
Vento: variabile 0 km/h
Temperatura: 16°C
Punto di Rugiada: 14°C
Umidità: 88%
Barometro: 992 hPa
Condizioni: Pioggia Leggera
Nuvole: Nuvoloso
Visibilità: 10 km
Nuvole nel Dettaglio: Nuvoloso 914 m
2020/09/25 17:55 LIVT 251755Z /////KT 9999 -RA OVC030 16/14 Q0992 RMK OVC QUK / QUL / VIS MAR 20 KM VIS MIN 9999
LIMJ - Genova, It
Distanza dalla Stazione: 229 km
Ultimo Aggiornamento: Venerdì 25 Settembre 2020 20:20 CEST
Sereno
Sereno
 Wind from Est
Vento: Est 7 km/h
Temperatura: 16°C
Punto di Rugiada: 6°C
Umidità: 52%
Barometro: 996 hPa
Condizioni: Sereno
Visibilità: superiore a 10 km
2020/09/25 18:20 LIMJ 251820Z 10004KT 050V190 CAVOK 16/06 Q0996
LIRQ - Firenze Amerigo Vespucci, It
Distanza dalla Stazione: 119 km
Ultimo Aggiornamento: Venerdì 25 Settembre 2020 20:20 CEST
Prevalentemente Nuvoloso
Prevalentemente Nuvoloso
 Wind from Est
Vento: Est 7 km/h
Temperatura: 13°C
Punto di Rugiada: 9°C
Umidità: 77%
Barometro: 995 hPa
Nuvole: Prevalentemente Nuvoloso
Visibilità: 10 km
Nuvole nel Dettaglio: Qualche Nuvola 762 m
Prevalentemente Nuvoloso 2134 m
2020/09/25 18:20 LIRQ 251820Z 09004KT 060V120 9999 FEW025CB BKN070 13/09 Q0995 RETSRA
 
LIPY - Ancona, It
Distanza dalla Stazione: 189 km
Ultimo Aggiornamento: Venerdì 25 Settembre 2020 20:20 CEST
Pioggia, Prevalentemente Nuvoloso
Pioggia, Prevalentemente Nuvoloso
 Wind from Ovest-Sud-Ovest
Vento: Ovest-Sud-Ovest 28 km/h
Temperatura: 14°C
Punto di Rugiada: 12°C
Umidità: 88%
Barometro: 996 hPa
Condizioni: Pioggia
Nuvole: Prevalentemente Nuvoloso
Visibilità: 8 km
Nuvole nel Dettaglio: Qualche Nuvola 671 m
Prevalentemente Nuvoloso 1036 m
2020/09/25 18:20 LIPY 251820Z AUTO 24015KT 8000 RA FEW022/// BKN034/// 14/12 Q0996
LIBP - Pescara, It
Distanza dalla Stazione: 333 km
Ultimo Aggiornamento: Venerdì 25 Settembre 2020 20:20 CEST
Sereno
Sereno
 Wind from Sud-Ovest
Vento: Sud-Ovest 26 km/h
Temperatura: 22°C
Punto di Rugiada: 8°C
Umidità: 41%
Barometro: 996 hPa
Nuvole: Sereno
Visibilità: 10 km
2020/09/25 18:20 LIBP 251820Z AUTO 23014KT 9999 NCD 22/08 Q0996
LIRF - Roma-Fiumicino, It
Distanza dalla Stazione: 334 km
Ultimo Aggiornamento: Venerdì 25 Settembre 2020 20:20 CEST
Parzialmente Nuvoloso
Parzialmente Nuvoloso
 Wind from Ovest
Vento: Ovest 48 km/h, Raffica: 67 km/h
Temperatura: 20°C
Punto di Rugiada: 11°C
Umidità: 56%
Barometro: 999 hPa
Nuvole: Parzialmente Nuvoloso
Visibilità: 10 km
Nuvole nel Dettaglio: Parzialmente Nuvoloso 1372 m
2020/09/25 18:20 LIRF 251820Z 26026G36KT 9999 SCT045 20/11 Q0999 NOSIG
 
LIRN - Napoli Capodichino, It
Distanza dalla Stazione: 494 km
Ultimo Aggiornamento: Venerdì 25 Settembre 2020 20:20 CEST
Pioggia Leggera, Prevalentemente Nuvoloso
Pioggia Leggera, Prevalentemente Nuvoloso
 Wind from Ovest-Nord-Ovest
Vento: Ovest-Nord-Ovest 30 km/h
Temperatura: 20°C
Punto di Rugiada: 14°C
Umidità: 69%
Barometro: 1001 hPa
Condizioni: Pioggia Leggera
Nuvole: Prevalentemente Nuvoloso
Visibilità: 10 km
Nuvole nel Dettaglio: Prevalentemente Nuvoloso 1524 m
2020/09/25 18:20 LIRN 251820Z 30016KT 9999 -RA BKN050 20/14 Q1001 NOSIG
LIBD - Bari Palese, It
Distanza dalla Stazione: 594 km
Ultimo Aggiornamento: Venerdì 25 Settembre 2020 20:20 CEST
Qualche Nuvola
Qualche Nuvola
 Wind from Sud-Ovest
Vento: Sud-Ovest 24 km/h
Temperatura: 23°C
Punto di Rugiada: 16°C
Umidità: 65%
Barometro: 999 hPa
Nuvole: Qualche Nuvola
Visibilità: 10 km
Nuvole nel Dettaglio: Qualche Nuvola 1219 m
2020/09/25 18:20 LIBD 251820Z 22013KT 9999 FEW040 23/16 Q0999
LIBG - Taranto Grottaglie, It
Distanza dalla Stazione: 670 km
Ultimo Aggiornamento: Venerdì 25 Settembre 2020 19:50 CEST
Qualche Nuvola
Qualche Nuvola
 Wind from Sud-Ovest
Vento: Sud-Ovest 30 km/h, Raffica: 59 km/h
Temperatura: 27°C
Heat Index: 28°C
Punto di Rugiada: 17°C
Umidità: 54%
Barometro: 1001 hPa
Nuvole: Qualche Nuvola
Visibilità: 10 km
Nuvole nel Dettaglio: Qualche Nuvola 1219 m
2020/09/25 17:50 LIBG 251750Z 22016G32KT 9999 FEW040 27/17 Q1001
 
LICR - Reggio Calabria, It
Distanza dalla Stazione: 819 km
Ultimo Aggiornamento: Venerdì 25 Settembre 2020 19:50 CEST
Sereno
Sereno
 Wind from Nord-Est
Vento: Nord-Est 9 km/h
Temperatura: 27°C
Heat Index: 28°C
Punto di Rugiada: 19°C
Umidità: 62%
Barometro: 1005 hPa
Condizioni: Sereno
Visibilità: superiore a 10 km
2020/09/25 17:50 LICR 251750Z 05005KT CAVOK 27/19 Q1005
LICJ - Palermo Punta Raisi, It
Distanza dalla Stazione: 762 km
Ultimo Aggiornamento: Venerdì 25 Settembre 2020 20:20 CEST
Prevalentemente Nuvoloso
Prevalentemente Nuvoloso
 Wind from Ovest
Vento: Ovest 48 km/h
Temperatura: 26°C
Punto di Rugiada: 18°C
Umidità: 61%
Barometro: 1007 hPa
Nuvole: Prevalentemente Nuvoloso
Visibilità: 10 km
Nuvole nel Dettaglio: Prevalentemente Nuvoloso 1676 m
Prevalentemente Nuvoloso 3018 m
2020/09/25 18:20 LICJ 251820Z AUTO 27026KT 9999 4900W BKN055/// BKN099/// 26/18 Q1007
LICC - Catania Fontanarossa, It
Distanza dalla Stazione: 866 km
Ultimo Aggiornamento: Venerdì 25 Settembre 2020 20:20 CEST
Sereno
Sereno
 Wind from Ovest-Sud-Ovest
Vento: Ovest-Sud-Ovest 13 km/h
Temperatura: 27°C
Heat Index: 27°C
Punto di Rugiada: 14°C
Umidità: 45%
Barometro: 1005 hPa
Condizioni: Sereno
Visibilità: superiore a 10 km
2020/09/25 18:20 LICC 251820Z 24007KT CAVOK 27/14 Q1005
 
LIEE - Cagliari Elmas, It
Distanza dalla Stazione: 655 km
Ultimo Aggiornamento: Venerdì 25 Settembre 2020 20:20 CEST
Qualche Nuvola
Qualche Nuvola
 Wind from Nord-Ovest
Vento: Nord-Ovest 20 km/h
Temperatura: 20°C
Punto di Rugiada: 12°C
Umidità: 60%
Barometro: 1008 hPa
Nuvole: Qualche Nuvola
Visibilità: 10 km
Nuvole nel Dettaglio: Qualche Nuvola 1219 m
2020/09/25 18:20 LIEE 251820Z 32011KT 290V350 9999 FEW040 20/12 Q1008
LIEO - Olbia, It
Distanza dalla Stazione: 463 km
Ultimo Aggiornamento: Venerdì 25 Settembre 2020 20:20 CEST
Pioggia Leggera, Parzialmente Nuvoloso
Pioggia Leggera, Parzialmente Nuvoloso
 Wind from Ovest-Sud-Ovest
Vento: Ovest-Sud-Ovest 52 km/h, Raffica: 81 km/h
Temperatura: 17°C
Punto di Rugiada: 9°C
Umidità: 59%
Barometro: 1004 hPa
Condizioni: Pioggia Leggera
Nuvole: Parzialmente Nuvoloso
Visibilità: 7 km
Nuvole nel Dettaglio: Parzialmente Nuvoloso 762 m
2020/09/25 18:20 LIEO 251820Z 25028G44KT 7000 -RA SCT025 17/09 Q1004
LICG - Pantelleria, It
Distanza dalla Stazione: 893 km
Ultimo Aggiornamento: Venerdì 25 Settembre 2020 19:50 CEST
Sereno
Sereno
 Wind from Ovest
Vento: Ovest 24 km/h
Temperatura: 25°C
Punto di Rugiada: 20°C
Umidità: 74%
Barometro: 1010 hPa
Condizioni: Sereno
Visibilità: superiore a 10 km
2020/09/25 17:50 LICG 251750Z 26013KT CAVOK 25/20 Q1010